Time;durP1;ratioP1;P1;durP2;ratioP2;P2;SDS_P1;SDS_P2;PMS_P1;PMS_P2;Temp;Humidity;BMP_temperature;BMP_pressure;BME280_temperature;BME280_humidity;BME280_pressure;Samples;Min_cycle;Max_cycle;Signal;HPM_P1;HPM_P2
2023/06/04 00:00:01;;;;;;;7.25;3.80;;;;;;;8.18;96.47;98911.63;5055002;28;20052;-62
2023/06/04 00:02:32;;;;;;;6.75;3.78;;;;;;;8.28;96.87;98912.22;5054635;28;20051;-61
2023/06/04 00:05:02;;;;;;;5.38;3.65;;;;;;;8.26;96.82;98902.75;5064908;28;20486;-61
2023/06/04 00:07:33;;;;;;;9.15;4.30;;;;;;;8.39;96.87;98906.72;5054643;28;20421;-62
2023/06/04 00:10:05;;;;;;;9.27;4.60;;;;;;;8.47;96.42;98902.16;5064946;28;20048;-61
2023/06/04 00:12:36;;;;;;;6.97;3.80;;;;;;;8.54;96.30;98902.84;5051517;28;20094;-62
2023/06/04 00:15:09;;;;;;;7.43;4.15;;;;;;;8.57;95.87;98898.41;5065944;28;20127;-59
2023/06/04 00:17:40;;;;;;;9.90;4.00;;;;;;;8.61;95.51;98894.81;5055086;28;20048;-61
2023/06/04 00:20:11;;;;;;;8.15;3.50;;;;;;;8.58;95.17;98884.47;5065160;28;20055;-62
2023/06/04 00:22:42;;;;;;;5.95;3.42;;;;;;;8.66;94.86;98891.19;5054165;28;20473;-61
2023/06/04 00:25:12;;;;;;;5.78;3.63;;;;;;;8.66;95.12;98888.59;5065100;28;20064;-61
2023/06/04 00:27:43;;;;;;;7.85;3.88;;;;;;;8.72;95.64;98897.06;5054481;28;20121;-61
2023/06/04 00:30:16;;;;;;;7.60;4.18;;;;;;;8.83;96.15;98894.13;5066234;28;20477;-62
2023/06/04 00:32:46;;;;;;;7.45;4.13;;;;;;;8.83;95.83;98888.91;5036382;28;20125;-61
2023/06/04 00:35:17;;;;;;;10.15;4.00;;;;;;;8.94;95.76;98886.84;5061560;28;20048;-61
2023/06/04 00:37:48;;;;;;;6.43;4.30;;;;;;;9.15;96.12;98884.44;5052259;28;20064;-61
2023/06/04 00:40:19;;;;;;;7.25;3.70;;;;;;;9.34;95.81;98889.91;5045006;28;20051;-58
2023/06/04 00:42:49;;;;;;;7.75;3.95;;;;;;;9.44;95.14;98886.94;5052392;28;20126;-60
2023/06/04 00:45:21;;;;;;;6.30;3.80;;;;;;;9.52;94.53;98884.06;5053879;28;20053;-60
2023/06/04 00:47:52;;;;;;;7.57;3.92;;;;;;;9.48;94.10;98887.69;5045986;28;20059;-60
2023/06/04 00:50:23;;;;;;;10.32;4.25;;;;;;;9.50;93.70;98876.28;5064517;28;20063;-60
2023/06/04 00:52:54;;;;;;;5.60;3.83;;;;;;;9.43;93.73;98860.91;5053344;28;20050;-61
2023/06/04 00:55:24;;;;;;;6.22;4.00;;;;;;;9.53;93.73;98875.34;5064000;28;20428;-61
2023/06/04 00:57:55;;;;;;;4.78;3.20;;;;;;;9.39;92.89;98877.59;5054561;28;20091;-62
2023/06/04 01:00:27;;;;;;;6.53;3.88;;;;;;;9.36;93.65;98875.06;5065788;28;20048;-61
2023/06/04 01:03:05;;;;;;;6.82;3.67;;;;;;;9.42;93.65;98857.47;5053734;28;20044;-62
2023/06/04 01:05:42;;;;;;;4.10;3.08;;;;;;;9.22;93.66;98820.78;5064049;28;20075;-62
2023/06/04 01:08:13;;;;;;;5.80;3.42;;;;;;;9.46;92.83;98861.69;5009383;28;20082;-63
2023/06/04 01:10:53;;;;;;;6.32;3.53;;;;;;;9.39;92.65;98867.16;5019107;28;20512;-64
2023/06/04 01:13:24;;;;;;;6.63;3.80;;;;;;;9.37;93.75;98869.81;5030933;28;20727;-61
2023/06/04 01:15:59;;;;;;;8.15;4.10;;;;;;;9.44;93.57;98865.25;5029835;28;20044;-64
2023/06/04 01:18:32;;;;;;;9.63;4.13;;;;;;;9.32;93.33;98840.44;5034027;28;20055;-61
2023/06/04 01:21:08;;;;;;;11.27;5.25;;;;;;;9.28;93.65;98825.78;5039795;28;20632;-62
2023/06/04 01:23:47;;;;;;;7.55;4.18;;;;;;;9.47;93.27;98844.28;5038574;28;20063;-62
2023/06/04 01:26:21;;;;;;;8.13;4.00;;;;;;;9.39;92.99;98839.31;5050525;28;20477;-61
2023/06/04 01:28:53;;;;;;;7.13;4.15;;;;;;;9.44;93.02;98850.44;5039741;28;21216;-64
2023/06/04 01:31:25;;;;;;;9.00;3.78;;;;;;;9.47;92.98;98847.72;5050581;28;20065;-61
2023/06/04 01:33:57;;;;;;;6.22;3.50;;;;;;;9.56;93.03;98848.31;5044164;28;20155;-62
2023/06/04 01:36:28;;;;;;;6.22;3.50;;;;;;;9.57;92.68;98844.81;5053708;28;20135;-63
2023/06/04 01:39:00;;;;;;;7.25;3.85;;;;;;;9.57;92.15;98839.59;5034426;28;20792;-63
2023/06/04 01:41:31;;;;;;;6.90;3.67;;;;;;;9.56;91.93;98848.31;5030892;28;20067;-61
2023/06/04 01:44:01;;;;;;;5.60;3.58;;;;;;;9.70;92.95;98841.69;5041671;28;20113;-61
2023/06/04 01:46:33;;;;;;;6.55;3.88;;;;;;;9.77;92.48;98837.13;5039321;28;20083;-61
2023/06/04 01:49:06;;;;;;;5.53;3.75;;;;;;;9.83;92.07;98847.31;5049861;28;20052;-63
2023/06/04 01:51:36;;;;;;;11.82;3.75;;;;;;;9.81;91.45;98838.72;5039552;28;20143;-64
2023/06/04 01:54:07;;;;;;;6.90;3.50;;;;;;;9.69;91.27;98844.38;5049684;28;20131;-63
2023/06/04 01:56:38;;;;;;;5.53;3.70;;;;;;;9.69;91.67;98834.78;5039690;28;20052;-63
2023/06/04 01:59:11;;;;;;;6.35;3.05;;;;;;;9.68;91.74;98840.03;5050254;28;20132;-62
2023/06/04 02:01:44;;;;;;;7.97;3.40;;;;;;;9.67;91.78;98835.75;5044238;28;20201;-62
2023/06/04 02:04:14;;;;;;;7.85;3.40;;;;;;;9.63;91.51;98834.16;5050563;28;20056;-61
2023/06/04 02:06:45;;;;;;;6.65;3.53;;;;;;;9.49;91.57;98827.66;5043842;28;20135;-62
2023/06/04 02:09:15;;;;;;;5.25;3.10;;;;;;;9.43;91.76;98827.88;5053697;28;20063;-62
2023/06/04 02:11:46;;;;;;;5.63;2.90;;;;;;;9.45;91.96;98825.22;5043184;28;20200;-61
2023/06/04 02:14:16;;;;;;;5.45;3.05;;;;;;;9.39;92.11;98823.69;5054461;28;20044;-62
2023/06/04 02:16:49;;;;;;;4.88;2.85;;;;;;;9.42;93.34;98815.75;5043491;28;20056;-61
2023/06/04 02:19:20;;;;;;;5.22;3.83;;;;;;;9.41;93.34;98824.47;5051683;28;20052;-60
2023/06/04 02:21:51;;;;;;;7.55;3.88;;;;;;;9.36;93.74;98821.19;5043129;28;20044;-61
2023/06/04 02:24:21;;;;;;;6.78;3.63;;;;;;;9.33;94.05;98821.28;5053511;28;20108;-64
2023/06/04 02:26:55;;;;;;;5.28;3.25;;;;;;;9.36;94.58;98815.97;5042954;28;20048;-63
2023/06/04 02:29:26;;;;;;;6.47;3.75;;;;;;;9.12;93.84;98780.31;5052797;28;20049;-61
2023/06/04 02:31:58;;;;;;;6.93;3.63;;;;;;;9.31;93.74;98817.88;5033277;28;20036;-61
2023/06/04 02:34:29;;;;;;;5.43;3.90;;;;;;;9.38;93.56;98806.31;5037407;28;20106;-62
2023/06/04 02:37:00;;;;;;;8.77;4.22;;;;;;;9.41;93.32;98807.97;5056320;28;20048;-62
2023/06/04 02:39:30;;;;;;;5.38;3.90;;;;;;;9.41;93.72;98808.84;5054002;28;20047;-63
2023/06/04 02:42:01;;;;;;;6.70;4.40;;;;;;;9.41;93.99;98808.84;5062453;28;20148;-62
2023/06/04 02:44:31;;;;;;;6.38;3.85;;;;;;;9.49;93.68;98809.41;5051964;28;20138;-61
2023/06/04 02:47:03;;;;;;;5.88;3.63;;;;;;;9.34;93.89;98786.50;5063039;28;20044;-63
2023/06/04 02:49:34;;;;;;;6.07;3.95;;;;;;;9.57;94.09;98808.31;5052316;28;20054;-62
2023/06/04 02:52:05;;;;;;;8.77;4.40;;;;;;;9.47;93.90;98786.91;5062504;28;20501;-62
2023/06/04 02:54:35;;;;;;;8.18;4.13;;;;;;;9.52;94.02;98805.00;5051857;28;20047;-62
2023/06/04 02:57:07;;;;;;;7.45;3.85;;;;;;;9.48;93.72;98799.91;5058628;28;20052;-60
2023/06/04 02:59:37;;;;;;;8.52;4.68;;;;;;;9.44;93.81;98803.50;5051664;28;23766;-61
2023/06/04 03:02:10;;;;;;;7.45;4.57;;;;;;;9.44;94.09;98807.88;5062701;28;20056;-60
2023/06/04 03:04:42;;;;;;;7.85;4.43;;;;;;;9.40;94.65;98794.09;5051788;28;20074;-61
2023/06/04 03:07:13;;;;;;;7.80;4.22;;;;;;;9.42;95.47;98796.66;5062042;28;20143;-63
2023/06/04 03:09:43;;;;;;;6.47;3.65;;;;;;;9.40;95.67;98796.69;5051365;28;20072;-62
2023/06/04 03:12:14;;;;;;;6.60;3.60;;;;;;;9.36;95.86;98784.69;5061893;28;20131;-62
2023/06/04 03:14:44;;;;;;;12.10;4.15;;;;;;;9.45;96.60;98784.34;5051298;28;20154;-60
2023/06/04 03:17:17;;;;;;;9.98;4.60;;;;;;;9.54;96.75;98787.56;5062542;28;20050;-62
2023/06/04 03:19:47;;;;;;;7.88;4.30;;;;;;;9.56;96.13;98785.72;5051354;28;20056;-61
2023/06/04 03:22:18;;;;;;;5.28;3.05;;;;;;;9.51;95.76;98778.09;5061973;28;20052;-61
2023/06/04 03:24:49;;;;;;;5.55;3.42;;;;;;;9.48;95.97;98780.78;5051593;28;20091;-61
2023/06/04 03:27:19;;;;;;;8.40;3.50;;;;;;;9.48;96.10;98778.16;5061467;28;20039;-61
2023/06/04 03:29:50;;;;;;;8.63;4.18;;;;;;;9.49;95.97;98780.72;5051940;28;20528;-61
2023/06/04 03:32:22;;;;;;;4.93;3.25;;;;;;;9.47;95.64;98779.94;5061900;28;20044;-60
2023/06/04 03:34:52;;;;;;;7.07;3.65;;;;;;;9.41;95.64;98767.13;5052121;28;20137;-60
2023/06/04 03:37:23;;;;;;;9.82;3.70;;;;;;;9.46;95.82;98775.63;5061514;28;20044;-61
2023/06/04 03:39:53;;;;;;;9.68;5.50;;;;;;;9.46;96.03;98779.97;5031693;28;20121;-60
2023/06/04 03:42:24;;;;;;;10.40;4.45;;;;;;;9.45;95.88;98773.91;5041962;28;20236;-62
2023/06/04 03:44:54;;;;;;;7.60;4.38;;;;;;;9.42;96.22;98779.25;5041550;28;20091;-61
2023/06/04 03:47:26;;;;;;;10.85;4.63;;;;;;;9.44;96.49;98785.25;5052303;28;20075;-60
2023/06/04 03:49:57;;;;;;;11.25;4.85;;;;;;;9.44;96.25;98782.66;5051366;28;20048;-59
2023/06/04 03:52:28;;;;;;;11.15;6.50;;;;;;;9.35;96.40;98775.16;5061116;28;20051;-59
2023/06/04 03:54:58;;;;;;;13.43;6.40;;;;;;;9.41;96.88;98782.78;5050081;28;20052;-61
2023/06/04 03:57:29;;;;;;;8.15;4.10;;;;;;;9.47;97.66;98776.47;5058041;28;20147;-61
2023/06/04 04:00:00;;;;;;;16.88;9.63;;;;;;;9.52;97.80;98784.16;5060456;28;20056;-61
2023/06/04 04:02:32;;;;;;;8.70;4.75;;;;;;;9.48;97.50;98781.66;5052367;28;20190;-62
2023/06/04 04:05:03;;;;;;;13.45;7.38;;;;;;;9.45;97.43;98786.09;5061003;28;20047;-62
2023/06/04 04:07:33;;;;;;;10.48;4.00;;;;;;;9.39;97.07;98784.56;5050234;28;20059;-60
2023/06/04 04:10:05;;;;;;;8.13;3.90;;;;;;;9.40;97.14;98786.25;5060464;28;20105;-62
2023/06/04 04:12:36;;;;;;;38.17;22.30;;;;;;;9.44;97.30;98782.66;5050022;28;20056;-61
2023/06/04 04:15:08;;;;;;;7.32;4.10;;;;;;;9.45;97.07;98786.94;5061238;28;20060;-62
2023/06/04 04:17:40;;;;;;;17.15;11.52;;;;;;;9.41;96.68;98782.78;5049808;28;20052;-62
2023/06/04 04:20:12;;;;;;;11.00;6.78;;;;;;;9.39;96.43;98783.72;5060401;28;20048;-60
2023/06/04 04:22:43;;;;;;;9.73;6.90;;;;;;;9.36;96.80;98787.28;5049673;28;20052;-63
2023/06/04 04:25:14;;;;;;;6.60;3.38;;;;;;;9.35;97.13;98787.34;5060578;28;20083;-62
2023/06/04 04:27:44;;;;;;;5.55;3.17;;;;;;;9.38;97.43;98788.06;5049634;28;20510;-62
2023/06/04 04:30:16;;;;;;;8.50;3.95;;;;;;;9.41;97.71;98782.78;5059829;28;20048;-61
2023/06/04 04:32:49;;;;;;;8.13;3.40;;;;;;;9.40;97.39;98786.25;5049702;28;20131;-63
2023/06/04 04:35:20;;;;;;;5.35;2.75;;;;;;;9.33;96.97;98784.78;5060025;28;20075;-63
2023/06/04 04:37:51;;;;;;;8.07;3.50;;;;;;;9.29;97.27;98788.41;5050055;28;20133;-61
2023/06/04 04:40:21;;;;;;;8.18;4.28;;;;;;;9.29;97.52;98786.66;5059897;28;20442;-64
2023/06/04 04:42:52;;;;;;;7.43;3.90;;;;;;;9.30;97.58;98790.09;5049225;28;20093;-61
2023/06/04 04:45:22;;;;;;;4.85;4.07;;;;;;;9.25;97.63;98776.38;5059972;28;20052;-64
2023/06/04 04:47:54;;;;;;;7.72;3.97;;;;;;;9.33;97.91;98784.78;5049655;28;20386;-63
2023/06/04 04:50:25;;;;;;;3.38;2.17;;;;;;;9.37;97.74;98781.16;5060545;28;20173;-63
2023/06/04 04:52:56;;;;;;;4.40;2.25;;;;;;;9.35;97.09;98782.97;5020307;28;20110;-64
2023/06/04 04:55:26;;;;;;;5.00;2.33;;;;;;;9.38;97.07;98782.84;5048361;28;20067;-63
2023/06/04 04:57:57;;;;;;;8.68;1.92;;;;;;;9.34;96.55;98785.66;5049033;28;20181;-64
2023/06/04 05:00:28;;;;;;;4.35;1.80;;;;;;;9.32;96.14;98788.28;5059965;28;20055;-64
2023/06/04 05:03:00;;;;;;;3.28;1.83;;;;;;;9.25;95.88;98787.66;5049000;28;20066;-61
2023/06/04 05:05:30;;;;;;;7.75;3.05;;;;;;;9.24;96.30;98790.31;5049683;28;20509;-63
2023/06/04 05:08:01;;;;;;;13.90;9.00;;;;;;;9.28;97.04;98791.91;5059481;28;20051;-62
2023/06/04 05:10:32;;;;;;;7.60;3.30;;;;;;;9.30;96.83;98790.09;5049064;28;20048;-64
2023/06/04 05:13:02;;;;;;;9.23;3.85;;;;;;;9.29;96.78;98780.59;5059266;28;20043;-64
2023/06/04 05:15:33;;;;;;;8.82;3.10;;;;;;;9.39;96.79;98795.00;5048589;28;20056;-62
2023/06/04 05:18:07;;;;;;;4.20;2.30;;;;;;;9.39;96.47;98795.00;5059131;28;20079;-64
2023/06/04 05:20:38;;;;;;;3.00;1.85;;;;;;;9.34;96.53;98786.50;5048322;28;20142;-61
2023/06/04 05:23:09;;;;;;;5.55;2.38;;;;;;;9.32;96.90;98777.88;5059586;28;20423;-63
2023/06/04 05:25:40;;;;;;;3.15;2.00;;;;;;;9.33;97.14;98790.00;5048610;28;20079;-64
2023/06/04 05:28:12;;;;;;;3.38;1.60;;;;;;;9.32;97.14;98788.28;5059299;28;20090;-64
2023/06/04 05:30:43;;;;;;;3.38;1.45;;;;;;;9.30;96.93;98784.88;5048183;28;20052;-66
2023/06/04 05:33:19;;;;;;;3.55;3.00;;;;;;;9.25;97.16;98787.66;5058480;28;20051;-63
2023/06/04 05:35:49;;;;;;;4.30;3.90;;;;;;;9.23;97.49;98783.41;5047234;28;20530;-62
2023/06/04 05:38:20;;;;;;;2.35;1.52;;;;;;;9.18;97.35;98770.53;5058093;28;20147;-65
2023/06/04 05:40:52;;;;;;;2.45;1.90;;;;;;;9.20;97.45;98789.56;5047523;28;20048;-64
2023/06/04 05:43:23;;;;;;;2.88;1.67;;;;;;;9.16;97.66;98788.00;5058843;28;20048;-64
2023/06/04 05:45:54;;;;;;;5.03;2.70;;;;;;;9.12;97.57;98785.53;5042256;28;20130;-64
2023/06/04 05:48:27;;;;;;;2.80;2.13;;;;;;;9.12;97.52;98775.09;5059381;28;20055;-63
2023/06/04 05:50:57;;;;;;;3.28;1.42;;;;;;;9.25;98.02;98784.19;5035819;28;20063;-64
2023/06/04 05:53:28;;;;;;;3.47;1.65;;;;;;;9.26;97.68;98788.50;5040313;28;20576;-61
2023/06/04 05:55:59;;;;;;;5.32;2.83;;;;;;;9.23;97.79;98789.44;5049104;28;20085;-65
2023/06/04 05:58:29;;;;;;;2.20;1.88;;;;;;;9.20;97.26;98783.50;5056359;28;20137;-60
2023/06/04 06:01:00;;;;;;;1.88;1.15;;;;;;;9.10;96.11;98782.13;5058790;28;20044;-63
2023/06/04 06:03:32;;;;;;;3.00;0.95;;;;;;;8.95;94.03;98784.34;5050205;28;20087;-65
2023/06/04 06:06:03;;;;;;;1.27;0.93;;;;;;;8.91;92.90;98781.88;5058480;28;20112;-64
2023/06/04 06:08:33;;;;;;;1.17;0.60;;;;;;;8.82;92.02;98783.88;5048079;28;20070;-64
2023/06/04 06:11:05;;;;;;;4.72;1.50;;;;;;;8.77;92.09;98791.00;5057196;28;20058;-61
2023/06/04 06:13:39;;;;;;;3.33;1.65;;;;;;;8.72;91.76;98789.47;5046930;28;20050;-64
2023/06/04 06:16:10;;;;;;;3.30;0.52;;;;;;;8.44;90.75;98761.72;5058316;28;20075;-61
2023/06/04 06:18:42;;;;;;;0.77;0.50;;;;;;;8.49;89.96;98791.03;5048200;28;20470;-61
2023/06/04 06:21:13;;;;;;;1.15;0.60;;;;;;;8.31;90.05;98791.56;5057800;28;20482;-62
2023/06/04 06:23:43;;;;;;;0.82;0.40;;;;;;;8.16;89.47;98796.38;5048391;28;20127;-66
2023/06/04 06:26:14;;;;;;;0.40;0.40;;;;;;;8.02;90.30;98805.47;5059285;28;20128;-63
2023/06/04 06:28:45;;;;;;;0.75;0.47;;;;;;;7.87;90.74;98806.75;5029402;28;20063;-62
2023/06/04 06:31:17;;;;;;;1.63;0.40;;;;;;;7.76;90.60;98805.31;5055487;28;20072;-61
2023/06/04 06:33:50;;;;;;;1.10;0.40;;;;;;;7.67;91.79;98807.31;5048214;28;20050;-61
2023/06/04 06:36:20;;;;;;;1.75;0.60;;;;;;;7.65;91.95;98816.91;5059033;28;20040;-63
2023/06/04 06:38:52;;;;;;;1.17;0.70;;;;;;;7.61;92.58;98805.72;5048538;28;20063;-65
2023/06/04 06:41:23;;;;;;;2.05;0.57;;;;;;;7.57;92.79;98815.38;5059555;28;20052;-63
2023/06/04 06:43:54;;;;;;;1.52;0.52;;;;;;;7.60;93.35;98811.84;5040653;28;20125;-62
2023/06/04 06:46:24;;;;;;;1.00;0.40;;;;;;;7.67;93.42;98805.56;5053149;28;20140;-62
2023/06/04 06:48:56;;;;;;;1.17;0.40;;;;;;;7.67;92.78;98810.78;5032872;28;20044;-63
2023/06/04 06:51:28;;;;;;;0.82;0.40;;;;;;;7.64;92.51;98816.06;5052925;28;20048;-64
2023/06/04 06:54:00;;;;;;;0.73;0.47;;;;;;;7.61;91.55;98813.53;5042405;28;20064;-62
2023/06/04 06:56:32;;;;;;;0.75;0.40;;;;;;;7.66;91.33;98818.59;5042431;28;20062;-64
2023/06/04 06:59:02;;;;;;;0.40;0.40;;;;;;;7.68;91.26;98816.81;5052799;28;20117;-63
2023/06/04 07:01:33;;;;;;;1.67;0.50;;;;;;;7.80;91.56;98802.63;5042284;28;20044;-66
2023/06/04 07:04:06;;;;;;;3.22;0.40;;;;;;;7.85;91.16;98800.75;5052847;28;20756;-64
2023/06/04 07:06:37;;;;;;;0.40;0.40;;;;;;;7.85;90.73;98804.19;5042462;28;20158;-62
2023/06/04 07:09:08;;;;;;;0.50;0.50;;;;;;;7.89;90.31;98804.97;5052608;28;20083;-64
2023/06/04 07:11:39;;;;;;;1.00;0.38;;;;;;;7.87;89.96;98801.56;5050766;28;20048;-65
2023/06/04 07:14:09;;;;;;;1.75;0.60;;;;;;;7.93;89.51;98814.38;5062864;28;20056;-63
2023/06/04 07:16:40;;;;;;;2.17;0.40;;;;;;;7.89;89.54;98805.81;5034103;28;20147;-65
2023/06/04 07:19:12;;;;;;;0.30;0.30;;;;;;;7.68;88.73;98786.47;5038909;28;20048;-64
2023/06/04 07:21:42;;;;;;;3.50;0.50;;;;;;;7.62;88.14;98799.66;5042967;28;20055;-65
2023/06/04 07:24:13;;;;;;;0.32;0.32;;;;;;;7.65;87.93;98806.50;5059210;28;20131;-62
2023/06/04 07:26:44;;;;;;;0.40;0.40;;;;;;;7.64;88.46;98805.66;5051311;28;20044;-61
2023/06/04 07:29:15;;;;;;;0.32;0.32;;;;;;;7.73;89.17;98809.75;5062780;28;20529;-67
2023/06/04 07:31:45;;;;;;;1.00;0.40;;;;;;;7.65;88.77;98796.13;5027323;28;20491;-65
2023/06/04 07:34:17;;;;;;;0.47;0.47;;;;;;;7.78;88.63;98803.50;5048686;28;20599;-63
2023/06/04 07:36:48;;;;;;;0.40;0.40;;;;;;;7.84;88.85;98804.22;5041335;28;20053;-66
2023/06/04 07:39:19;;;;;;;0.40;0.40;;;;;;;7.64;87.35;98792.66;5052356;28;20125;-64
2023/06/04 07:41:49;;;;;;;0.40;0.40;;;;;;;7.45;87.07;98789.72;5041964;28;20095;-67
2023/06/04 07:44:20;;;;;;;1.23;0.40;;;;;;;7.49;87.54;98808.69;5052166;28;20054;-66
2023/06/04 07:46:50;;;;;;;0.40;0.40;;;;;;;7.45;88.39;98815.69;5041988;28;20085;-67
2023/06/04 07:49:22;;;;;;;0.93;0.45;;;;;;;7.35;88.38;98815.09;5052270;28;20052;-66
2023/06/04 07:51:53;;;;;;;0.70;0.70;;;;;;;7.31;88.18;98808.28;5040969;28;20055;-67
2023/06/04 07:54:24;;;;;;;0.50;0.50;;;;;;;7.26;88.27;98809.28;5051519;28;20052;-64
2023/06/04 07:56:55;;;;;;;1.95;0.40;;;;;;;7.20;87.98;98805.09;5040112;28;20152;-64
2023/06/04 07:59:26;;;;;;;0.40;0.40;;;;;;;7.11;88.13;98811.41;5051946;28;20060;-62
2023/06/04 08:01:57;;;;;;;3.10;0.45;;;;;;;7.07;88.30;98814.13;5041629;28;20593;-64
2023/06/04 08:04:29;;;;;;;0.40;0.40;;;;;;;7.04;88.07;98819.34;5051710;28;20049;-64
2023/06/04 08:07:00;;;;;;;0.40;0.40;;;;;;;7.03;88.25;98812.47;5050327;28;20502;-65
2023/06/04 08:09:31;;;;;;;0.38;0.38;;;;;;;7.04;88.56;98819.34;5049763;28;20131;-59
2023/06/04 08:12:02;;;;;;;0.30;0.30;;;;;;;7.04;87.90;98819.34;5060651;28;20091;-65
2023/06/04 08:14:32;;;;;;;0.65;0.40;;;;;;;6.98;87.48;98815.19;5050274;28;20064;-66
2023/06/04 08:17:03;;;;;;;0.57;0.40;;;;;;;6.98;88.46;98824.72;5058741;28;20051;-63
2023/06/04 08:19:35;;;;;;;0.40;0.40;;;;;;;6.93;88.14;98818.78;5049740;28;20113;-67
2023/06/04 08:22:07;;;;;;;0.40;0.40;;;;;;;6.94;88.54;98823.06;5060979;28;20164;-67
2023/06/04 08:24:37;;;;;;;0.40;0.40;;;;;;;6.86;88.05;98821.56;5049923;28;20063;-67
2023/06/04 08:27:08;;;;;;;0.40;0.40;;;;;;;6.86;87.87;98842.31;5059926;28;20854;-62
2023/06/04 08:29:40;;;;;;;0.40;0.40;;;;;;;6.55;87.27;98790.28;5049790;28;20500;-68
2023/06/04 08:32:10;;;;;;;0.40;0.40;;;;;;;6.71;88.96;98832.28;5061116;28;20052;-68
2023/06/04 08:34:42;;;;;;;1.40;0.43;;;;;;;6.46;89.31;98801.72;5049201;28;20442;-67
2023/06/04 08:37:13;;;;;;;1.50;0.40;;;;;;;6.63;89.45;98840.25;5059835;28;20036;-67
2023/06/04 08:39:44;;;;;;;0.40;0.40;;;;;;;6.61;89.37;98839.41;5049387;28;20079;-65
2023/06/04 08:42:29;;;;;;;1.38;0.40;;;;;;;6.66;89.93;98818.56;5059964;28;20048;-65
2023/06/04 08:45:00;;;;;;;0.40;0.40;;;;;;;6.82;89.87;98835.50;5049558;28;20486;-66
2023/06/04 08:47:32;;;;;;;0.85;0.40;;;;;;;6.93;90.56;98836.97;5047125;28;20040;-64
2023/06/04 08:50:08;;;;;;;1.27;0.60;;;;;;;7.06;92.11;98843.56;5060489;28;20101;-63
2023/06/04 08:52:40;;;;;;;0.40;0.40;;;;;;;7.13;92.34;98845.13;5049242;28;20482;-66
2023/06/04 08:55:14;;;;;;;0.40;0.40;;;;;;;7.20;92.30;98854.47;5059337;28;20066;-67
2023/06/04 08:57:45;;;;;;;1.55;1.13;;;;;;;7.29;93.48;98850.78;5049519;28;20052;-66
2023/06/04 09:00:20;;;;;;;0.90;0.65;;;;;;;7.30;94.08;98842.94;5059762;28;20059;-65
2023/06/04 09:02:52;;;;;;;2.35;1.20;;;;;;;7.33;94.35;98853.25;5048783;28;21043;-63
2023/06/04 09:05:28;;;;;;;3.05;1.42;;;;;;;7.25;93.67;98856.94;5058789;28;20505;-65
2023/06/04 09:08:05;;;;;;;1.70;1.10;;;;;;;7.26;93.70;98856.91;5048785;28;20051;-66
2023/06/04 09:10:41;;;;;;;0.60;0.60;;;;;;;7.30;94.11;98858.53;5046111;28;20551;-62
2023/06/04 09:13:42;;;;;;;2.28;1.52;;;;;;;7.13;94.06;98840.75;5058666;28;20059;-59
2023/06/04 09:16:36;;;;;;;1.02;0.93;;;;;;;7.27;94.46;98863.81;5019473;28;20475;-65
2023/06/04 09:19:12;;;;;;;1.23;1.13;;;;;;;7.33;94.73;98868.84;5029927;28;20059;-61
2023/06/04 09:21:57;;;;;;;0.82;0.70;;;;;;;7.29;94.20;98862.03;5041204;28;20055;-62
2023/06/04 09:24:40;;;;;;;1.67;0.40;;;;;;;7.28;94.58;98865.50;5059648;28;20135;-62
2023/06/04 09:27:14;;;;;;;2.40;0.40;;;;;;;7.19;94.60;98865.75;5040167;28;20387;-64
2023/06/04 09:29:57;;;;;;;2.78;0.80;;;;;;;6.93;95.05;98836.97;5029454;28;20122;-63
2023/06/04 09:32:32;;;;;;;2.47;0.50;;;;;;;7.23;95.55;98882.97;5038761;28;20684;-64
2023/06/04 09:35:44;;;;;;;0.55;0.50;;;;;;;6.99;94.90;98875.75;5030597;28;20070;-60
2023/06/04 09:38:37;;;;;;;0.93;0.70;;;;;;;6.70;95.36;98872.97;5048372;28;20063;-62
2023/06/04 09:41:27;;;;;;;0.50;0.50;;;;;;;6.44;96.09;98829.44;5048939;28;20458;-63
2023/06/04 09:44:10;;;;;;;5.30;0.90;;;;;;;5.91;95.90;98761.41;5032365;28;20417;-64
2023/06/04 09:46:54;;;;;;;1.98;0.70;;;;;;;6.62;96.62;98874.88;5039612;28;20573;-63
2023/06/04 09:49:29;;;;;;;1.33;0.63;;;;;;;6.60;97.52;98886.19;5050475;28;20053;-64
2023/06/04 09:52:03;;;;;;;2.88;0.60;;;;;;;6.60;98.81;98886.19;5011706;28;20084;-65
2023/06/04 09:54:41;;;;;;;0.50;0.50;;;;;;;6.59;99.56;98889.66;5022487;28;20048;-64
2023/06/04 09:57:19;;;;;;;0.55;0.55;;;;;;;6.23;100.00;98840.28;5019108;28;20474;-65
2023/06/04 09:59:54;;;;;;;0.40;0.40;;;;;;;6.41;100.00;98881.38;5013960;28;20368;-65
2023/06/04 10:02:31;;;;;;;2.03;0.80;;;;;;;6.10;100.00;98823.28;5039540;28;20044;-66
2023/06/04 10:05:52;;;;;;;6.88;0.88;;;;;;;6.40;100.00;98884.03;5029661;28;20052;-64
2023/06/04 10:08:33;;;;;;;1.90;1.17;;;;;;;6.29;100.00;98879.09;5009040;28;20049;-63
2023/06/04 10:11:06;;;;;;;3.95;1.80;;;;;;;6.37;100.00;98892.75;5019905;28;20068;-61
2023/06/04 10:13:46;;;;;;;4.03;1.80;;;;;;;6.51;100.00;98897.63;5028422;28;20049;-62
2023/06/04 10:16:18;;;;;;;1.00;0.90;;;;;;;6.55;100.00;98893.22;5039580;28;20062;-63
2023/06/04 10:19:06;;;;;;;1.13;0.90;;;;;;;6.30;100.00;98841.88;5012658;28;20118;-66
2023/06/04 10:21:38;;;;;;;1.70;0.70;;;;;;;6.38;100.00;98844.28;4980956;28;20140;-66
2023/06/04 10:24:11;;;;;;;0.60;0.60;;;;;;;6.71;100.00;98899.78;5035927;28;20502;-64
2023/06/04 10:26:45;;;;;;;2.45;0.95;;;;;;;6.43;100.00;98853.66;5032806;28;20044;-63
2023/06/04 10:29:19;;;;;;;1.38;1.10;;;;;;;6.53;100.00;98863.84;5043248;28;20048;-65
2023/06/04 10:31:55;;;;;;;3.00;1.00;;;;;;;6.64;100.00;98903.38;5033051;28;21964;-61
2023/06/04 10:34:29;;;;;;;0.60;0.60;;;;;;;6.27;100.00;98873.06;5040118;28;20076;-59
2023/06/04 10:37:06;;;;;;;1.13;0.60;;;;;;;6.37;100.00;98905.72;5028125;28;20068;-64
2023/06/04 10:39:39;;;;;;;1.73;0.80;;;;;;;6.29;100.00;98910.22;5024041;28;20094;-61
2023/06/04 10:42:12;;;;;;;0.60;0.60;;;;;;;6.30;100.00;98914.50;5042972;28;20467;-59
2023/06/04 10:44:47;;;;;;;1.83;1.00;;;;;;;6.19;100.00;98919.03;5032731;28;20118;-62
2023/06/04 10:47:22;;;;;;;0.70;0.63;;;;;;;5.95;100.00;98903.09;5042484;28;20049;-63
2023/06/04 10:50:14;;;;;;;0.60;0.60;;;;;;;6.02;100.00;98919.41;5013110;28;20134;-63
2023/06/04 10:52:57;;;;;;;4.35;1.00;;;;;;;5.84;100.00;98910.16;5001545;28;21469;-62
2023/06/04 10:55:28;;;;;;;0.70;0.70;;;;;;;5.90;100.00;98929.97;5035509;28;20118;-65
2023/06/04 10:58:13;;;;;;;0.70;0.70;;;;;;;5.88;100.00;98927.38;5048801;28;20065;-64
2023/06/04 11:00:45;;;;;;;2.08;0.75;;;;;;;5.81;100.00;98931.81;5051231;28;20348;-64
2023/06/04 11:03:19;;;;;;;0.70;0.70;;;;;;;5.73;100.00;98923.34;5061949;28;20052;-62
2023/06/04 11:05:56;;;;;;;2.63;1.27;;;;;;;5.74;100.00;98919.00;5050299;28;20056;-63
2023/06/04 11:08:32;;;;;;;1.77;0.80;;;;;;;5.80;100.00;98939.66;5061242;28;20086;-65
2023/06/04 11:11:15;;;;;;;1.42;0.70;;;;;;;5.66;100.00;98913.13;5039374;28;20052;-68
2023/06/04 11:13:48;;;;;;;1.88;0.70;;;;;;;5.79;100.00;98937.91;5051219;28;20076;-66
2023/06/04 11:16:22;;;;;;;0.85;0.70;;;;;;;5.81;100.00;98936.16;5061485;28;20118;-67
2023/06/04 11:19:01;;;;;;;3.17;0.90;;;;;;;5.82;100.00;98943.06;5049942;28;20482;-67
2023/06/04 11:21:36;;;;;;;1.27;0.80;;;;;;;5.80;100.00;98944.84;5050764;28;20135;-69
2023/06/04 11:24:08;;;;;;;2.67;1.33;;;;;;;5.82;100.00;98945.66;5061203;28;20052;-68
2023/06/04 11:26:40;;;;;;;2.75;1.20;;;;;;;5.77;100.00;98944.91;5050532;28;20193;-67
2023/06/04 11:29:25;;;;;;;4.20;1.90;;;;;;;5.69;100.00;98941.56;5060709;28;20048;-68
2023/06/04 11:31:57;;;;;;;2.88;1.10;;;;;;;5.68;100.00;98939.88;5050065;28;20180;-65
2023/06/04 11:34:29;;;;;;;1.67;1.00;;;;;;;5.64;100.00;98941.63;5060745;28;20613;-66
2023/06/04 11:37:12;;;;;;;2.15;1.00;;;;;;;5.56;100.00;98941.78;4998490;28;20074;-66
2023/06/04 11:39:44;;;;;;;3.47;0.95;;;;;;;5.42;100.00;98915.28;5032503;28;20055;-66
2023/06/04 11:42:18;;;;;;;3.15;0.90;;;;;;;5.58;100.00;98950.38;5060661;28;20616;-64
2023/06/04 11:45:00;;;;;;;0.98;0.80;;;;;;;5.50;100.00;98936.72;5030836;28;20557;-68
2023/06/04 11:47:33;;;;;;;2.58;1.10;;;;;;;5.53;100.00;98947.00;5030933;28;20060;-68
2023/06/04 11:50:05;;;;;;;2.20;0.80;;;;;;;5.55;100.00;98953.03;5044005;28;20348;-60
2023/06/04 11:52:40;;;;;;;3.42;0.73;;;;;;;5.52;100.00;98953.09;5041052;28;20168;-63
2023/06/04 11:55:13;;;;;;;1.83;0.80;;;;;;;5.49;100.00;98960.03;5051258;28;20461;-62
2023/06/04 11:57:45;;;;;;;0.70;0.70;;;;;;;5.47;100.00;98960.09;5041035;28;20143;-64
2023/06/04 12:00:19;;;;;;;2.47;0.70;;;;;;;5.45;100.00;98964.44;5051712;28;20047;-64
2023/06/04 12:02:53;;;;;;;0.85;0.80;;;;;;;5.40;100.00;98958.47;5040665;28;20050;-63
2023/06/04 12:05:31;;;;;;;3.72;0.90;;;;;;;5.33;100.00;98954.28;5050917;28;20062;-64